Home > Products > Valid Products > TAF

000
FTUS44 KSHV 032320
TAFTYR
TAF
KTYR 032320Z 0400/0424 36005KT P6SM SKC
     FM040300 34002KT P6SM SCT100 BKN150
     FM040600 VRB03KT P6SM SCT080 BKN150
     FM041400 27007KT P6SM BKN150
     FM041600 29013G19KT P6SM FEW050=



000
FTUS44 KSHV 032320
TAFELD
TAF
KELD 032320Z 0400/0424 35005KT P6SM SCT060
     FM040900 VRB03KT P6SM SCT150
     FM041400 28006KT P6SM SCT050
     FM041700 27016G22KT P6SM SCT050=



000
FTUS44 KSHV 032320
TAFMLU
TAF
KMLU 032320Z 0400/0424 36004KT P6SM BKN050
     FM040600 VRB03KT P6SM SCT150
     FM041400 28007KT P6SM SKC
     FM041700 30015G21KT P6SM SKC
     FM042100 28017G24KT P6SM SKC=



000
FTUS44 KSHV 032320
TAFELD
TAF
KELD 032320Z 0400/0424 35005KT P6SM SCT060
     FM040900 VRB03KT P6SM SCT150
     FM041400 28006KT P6SM SCT050
     FM041700 27016G22KT P6SM SCT050=



000
FTUS44 KSHV 032320
TAFTXK
TAF
KTXK 032320Z 0400/0424 VRB06KT P6SM FEW060
     FM041500 27010G16KT P6SM SCT050
     FM041800 29015G22KT P6SM FEW050=



000
FTUS44 KSHV 032320
TAFMLU
TAF
KMLU 032320Z 0400/0424 36004KT P6SM BKN050
     FM040600 VRB03KT P6SM SCT150
     FM041400 28007KT P6SM SKC
     FM041700 30015G21KT P6SM SKC
     FM042100 28017G24KT P6SM SKC=



000
FTUS44 KSHV 032320
TAFTXK
TAF
KTXK 032320Z 0400/0424 VRB06KT P6SM FEW060
     FM041500 27010G16KT P6SM SCT050
     FM041800 29015G22KT P6SM FEW050=



000
FTUS44 KSHV 032320
TAFTYR
TAF
KTYR 032320Z 0400/0424 36005KT P6SM SKC
     FM040300 34002KT P6SM SCT100 BKN150
     FM040600 VRB03KT P6SM SCT080 BKN150
     FM041400 27007KT P6SM BKN150
     FM041600 29013G19KT P6SM FEW050=



000
FTUS44 KSHV 032320
TAFGGG
TAF
KGGG 032320Z 0400/0424 36006KT P6SM SKC
     FM040300 34002KT P6SM SCT100
     FM040600 VRB03KT P6SM SCT150
     FM041400 27007KT P6SM SCT060
     FM041700 30011G19KT P6SM SCT060=



000
FTUS44 KSHV 032320
TAFLFK
TAF
KLFK 032320Z 0400/0424 33004KT P6SM SKC
     FM040600 VRB03KT P6SM FEW150 SCT250
     FM040900 00000KT P6SM SCT150 BKN250
     FM041600 30007KT P6SM SCT050=



000
FTUS44 KSHV 032320
TAFGGG
TAF
KGGG 032320Z 0400/0424 36006KT P6SM SKC
     FM040300 34002KT P6SM SCT100
     FM040600 VRB03KT P6SM SCT150
     FM041400 27007KT P6SM SCT060
     FM041700 30011G19KT P6SM SCT060=



000
FTUS44 KSHV 032320
TAFSHV
TAF
KSHV 032320Z 0400/0424 36004KT P6SM FEW050
     FM040400 31003KT P6SM SCT120
     FM041000 32003KT P6SM BKN250
     FM041500 29009G18KT P6SM SCT045 SCT150
     FM041800 31017G24KT P6SM SCT045=



000
FTUS44 KSHV 032320
TAFLFK
TAF
KLFK 032320Z 0400/0424 33004KT P6SM SKC
     FM040600 VRB03KT P6SM FEW150 SCT250
     FM040900 00000KT P6SM SCT150 BKN250
     FM041600 30007KT P6SM SCT050=



000
FTUS44 KSHV 032320
TAFSHV
TAF
KSHV 032320Z 0400/0424 36004KT P6SM FEW050
     FM040400 31003KT P6SM SCT120
     FM041000 32003KT P6SM BKN250
     FM041500 29009G18KT P6SM SCT045 SCT150
     FM041800 31017G24KT P6SM SCT045=



000
FTUS44 KSHV 031742
TAFSHV
TAF
KSHV 031742Z 0318/0418 32010KT P6SM SCT030 BKN040
      TEMPO 0318/0320 BKN030 OVC040
     FM032000 34010KT P6SM BKN045
     FM040000 32006KT P6SM BKN050 BKN120
     FM040400 31003KT P6SM BKN120
     FM041000 32003KT P6SM BKN250
     FM041500 29007KT P6SM SCT045 SCT130=



000
FTUS44 KSHV 031742
TAFLFK
TAF
KLFK 031742Z 0318/0418 36008KT P6SM BKN045
     FM040000 34003KT P6SM SKC
     FM040600 VRB03KT P6SM FEW150 SCT250
     FM040900 00000KT P6SM BKN150 BKN250
     FM041600 30007KT P6SM SKC=



000
FTUS44 KSHV 031742
TAFMLU
TAF
KMLU 031742Z 0318/0418 35010KT P6SM SCT035 BKN045
     FM040100 35004KT P6SM BKN050
     FM040600 VRB03KT P6SM SCT150
     FM041400 28007KT P6SM SKC=



000
FTUS44 KSHV 031742
TAFTYR
TAF
KTYR 031742Z 0318/0418 35009KT P6SM SCT050
     FM040000 35004KT P6SM SCT150 BKN250
     FM040300 34002KT P6SM SCT100 BKN150
     FM040600 VRB03KT P6SM BKN080 BKN150
     FM041400 27007KT P6SM BKN060=



000
FTUS44 KSHV 031742
TAFELD
TAF
KELD 031742Z 0318/0418 33007KT P6SM SCT035 BKN050
     FM032100 33009KT P6SM BKN050 BKN150
     FM040100 33003KT P6SM FEW050 SCT150
     FM040900 VRB03KT P6SM SKC
     FM041400 28006KT P6SM SCT050=



000
FTUS44 KSHV 031742
TAFGGG
TAF
KGGG 031742Z 0318/0418 35009KT P6SM SCT050
     FM040000 35004KT P6SM SCT150 BKN250
     FM040300 34002KT P6SM SCT100 BKN150
     FM040600 VRB03KT P6SM BKN080 BKN150
     FM041400 27007KT P6SM BKN060=



000
FTUS44 KSHV 031742
TAFTXK
TAF
KTXK 031742Z 0318/0418 34008KT P6SM BKN050
     FM040000 28004KT P6SM SCT150 SCT250
     FM041500 27010G16KT P6SM SCT050=



000
FTUS44 KSHV 031742
TAFSHV
TAF
KSHV 031742Z 0318/0418 32010KT P6SM SCT030 BKN040
      TEMPO 0318/0320 BKN030 OVC040
     FM032000 34010KT P6SM BKN045
     FM040000 32006KT P6SM BKN050 BKN120
     FM040400 31003KT P6SM BKN120
     FM041000 32003KT P6SM BKN250
     FM041500 29007KT P6SM SCT045 SCT130=



000
FTUS44 KSHV 031742
TAFLFK
TAF
KLFK 031742Z 0318/0418 36008KT P6SM BKN045
     FM040000 34003KT P6SM SKC
     FM040600 VRB03KT P6SM FEW150 SCT250
     FM040900 00000KT P6SM BKN150 BKN250
     FM041600 30007KT P6SM SKC=



000
FTUS44 KSHV 031742
TAFTXK
TAF
KTXK 031742Z 0318/0418 34008KT P6SM BKN050
     FM040000 28004KT P6SM SCT150 SCT250
     FM041500 27010G16KT P6SM SCT050=



000
FTUS44 KSHV 031742
TAFELD
TAF
KELD 031742Z 0318/0418 33007KT P6SM SCT035 BKN050
     FM032100 33009KT P6SM BKN050 BKN150
     FM040100 33003KT P6SM FEW050 SCT150
     FM040900 VRB03KT P6SM SKC
     FM041400 28006KT P6SM SCT050=



000
FTUS44 KSHV 031742
TAFTYR
TAF
KTYR 031742Z 0318/0418 35009KT P6SM SCT050
     FM040000 35004KT P6SM SCT150 BKN250
     FM040300 34002KT P6SM SCT100 BKN150
     FM040600 VRB03KT P6SM BKN080 BKN150
     FM041400 27007KT P6SM BKN060=



000
FTUS44 KSHV 031742
TAFGGG
TAF
KGGG 031742Z 0318/0418 35009KT P6SM SCT050
     FM040000 35004KT P6SM SCT150 BKN250
     FM040300 34002KT P6SM SCT100 BKN150
     FM040600 VRB03KT P6SM BKN080 BKN150
     FM041400 27007KT P6SM BKN060=



000
FTUS44 KSHV 031742
TAFMLU
TAF
KMLU 031742Z 0318/0418 35010KT P6SM SCT035 BKN045
     FM040100 35004KT P6SM BKN050
     FM040600 VRB03KT P6SM SCT150
     FM041400 28007KT P6SM SKC=



000
FTUS44 KSHV 031726 AAB
TAFSHV
TAF AMD
KSHV 031726Z 0317/0412 32010KT P6SM SCT030 BKN040
      TEMPO 0318/0320 BKN030 OVC040
     FM032000 34010KT P6SM BKN045
     FM040000 32006KT P6SM BKN050 BKN120
     FM040400 31003KT P6SM BKN120
     FM041000 32003KT P6SM BKN250=



000
FTUS44 KSHV 031537 AAA
TAFELD
TAF AMD
KELD 031537Z 0316/0412 32005KT P6SM BKN025 OVC050
      TEMPO 0316/0318 SCT025 OVC050
     FM031800 34007KT P6SM SCT030 OVC050
     FM032100 33007KT P6SM BKN050 BKN150
     FM040100 VRB03KT P6SM FEW050 SCT150
     FM040900 00000KT P6SM SKC=



000
FTUS44 KSHV 031513 AAA
TAFMLU
TAF AMD
KMLU 031513Z 0315/0412 34006KT P6SM FEW020 SCT040
      TEMPO 0315/0317 BKN030 BKN045
     FM031700 35010KT P6SM SCT035 BKN045
     FM040100 35004KT P6SM BKN050
     FM040600 VRB03KT P6SM SCT150=



000
FTUS44 KSHV 031130
TAFTYR
TAF
KTYR 031130Z 0312/0412 35003KT P6SM SKC
     FM031500 36007KT P6SM SKC
     FM031800 36009KT P6SM FEW040
     FM040000 35004KT P6SM SCT150 BKN250
     FM040600 VRB03KT P6SM BKN150 BKN250=



000
FTUS44 KSHV 031130
TAFMLU
TAF
KMLU 031130Z 0312/0412 34004KT P6SM SCT045
      TEMPO 0312/0314 5SM BR BKN030
     FM031400 34006KT P6SM BKN040
      TEMPO 0314/0317 BKN030
     FM032000 33008KT P6SM BKN040
     FM040100 35004KT P6SM SCT045 SCT250
     FM040600 35003KT P6SM SCT250=



000
FTUS44 KSHV 031130
TAFTXK
TAF
KTXK 031130Z 0312/0412 33007KT P6SM SCT035
     FM031800 34008KT P6SM SCT040
     FM040000 28004KT P6SM SCT150 SCT250=



000
FTUS44 KSHV 031130
TAFGGG
TAF
KGGG 031130Z 0312/0412 33005KT P6SM SKC
     FM031500 36007KT P6SM SKC
     FM031800 36009KT P6SM SCT040
     FM040000 34004KT P6SM FEW150 SCT250
     FM040600 VRB03KT P6SM BKN150 BKN250=



000
FTUS44 KSHV 031130
TAFLFK
TAF
KLFK 031130Z 0312/0412 34005KT P6SM SKC
     FM031500 36007KT P6SM SKC
     FM031700 36008KT P6SM SCT040
     FM040000 34003KT P6SM SKC
     FM040600 00000KT P6SM FEW150 SCT250
     FM040900 00000KT P6SM BKN150 BKN250=



000
FTUS44 KSHV 031130
TAFSHV
TAF
KSHV 031130Z 0312/0412 33005KT P6SM SCT035
      TEMPO 0314/0318 BKN035
     FM031800 34008KT P6SM SCT040
     FM040000 32004KT P6SM SCT250=



000
FTUS44 KSHV 031130
TAFELD
TAF
KELD 031130Z 0312/0412 34006KT P6SM BKN045
      TEMPO 0312/0316 BKN030
     FM032000 33007KT P6SM SCT045
     FM040000 33003KT P6SM FEW050 SCT250=



000
FTUS44 KSHV 031130
TAFLFK
TAF
KLFK 031130Z 0312/0412 34005KT P6SM SKC
     FM031500 36007KT P6SM SKC
     FM031700 36008KT P6SM SCT040
     FM040000 34003KT P6SM SKC
     FM040600 00000KT P6SM FEW150 SCT250
     FM040900 00000KT P6SM BKN150 BKN250=



000
FTUS44 KSHV 031130
TAFSHV
TAF
KSHV 031130Z 0312/0412 33005KT P6SM SCT035
      TEMPO 0314/0318 BKN035
     FM031800 34008KT P6SM SCT040
     FM040000 32004KT P6SM SCT250=



000
FTUS44 KSHV 031130
TAFELD
TAF
KELD 031130Z 0312/0412 34006KT P6SM BKN045
      TEMPO 0312/0316 BKN030
     FM032000 33007KT P6SM SCT045
     FM040000 33003KT P6SM FEW050 SCT250=



000
FTUS44 KSHV 031130
TAFTXK
TAF
KTXK 031130Z 0312/0412 33007KT P6SM SCT035
     FM031800 34008KT P6SM SCT040
     FM040000 28004KT P6SM SCT150 SCT250=



000
FTUS44 KSHV 031130
TAFMLU
TAF
KMLU 031130Z 0312/0412 34004KT P6SM SCT045
      TEMPO 0312/0314 5SM BR BKN030
     FM031400 34006KT P6SM BKN040
      TEMPO 0314/0317 BKN030
     FM032000 33008KT P6SM BKN040
     FM040100 35004KT P6SM SCT045 SCT250
     FM040600 35003KT P6SM SCT250=



000
FTUS44 KSHV 031130
TAFTYR
TAF
KTYR 031130Z 0312/0412 35003KT P6SM SKC
     FM031500 36007KT P6SM SKC
     FM031800 36009KT P6SM FEW040
     FM040000 35004KT P6SM SCT150 BKN250
     FM040600 VRB03KT P6SM BKN150 BKN250=



000
FTUS44 KSHV 031130
TAFGGG
TAF
KGGG 031130Z 0312/0412 33005KT P6SM SKC
     FM031500 36007KT P6SM SKC
     FM031800 36009KT P6SM SCT040
     FM040000 34004KT P6SM FEW150 SCT250
     FM040600 VRB03KT P6SM BKN150 BKN250=



000
FTUS44 KSHV 030532
TAFELD
TAF
KELD 030532Z 0306/0406 VRB03KT P6SM SCT045
      TEMPO 0306/0308 BKN045
     FM030800 35004KT 6SM BR BKN035
      TEMPO 0310/0314 BKN025
     FM031400 35006KT P6SM BKN025
     FM031700 34006KT P6SM BKN035
     FM040000 33003KT P6SM SCT045 SCT150 BKN250=



000
FTUS44 KSHV 030532
TAFTXK
TAF
KTXK 030532Z 0306/0406 32005KT P6SM SCT035
     FM031500 35007KT P6SM SCT035
     FM031800 34008KT P6SM SCT040
     FM040000 29004KT P6SM SCT150 BKN250=



000
FTUS44 KSHV 030532
TAFLFK
TAF
KLFK 030532Z 0306/0406 34005KT P6SM BKN110
     FM030900 34005KT P6SM SCT110
     FM031500 35008KT P6SM SKC
     FM031800 35007KT P6SM SKC
     FM040000 34004KT P6SM SKC=



000
FTUS44 KSHV 030532
TAFTYR
TAF
KTYR 030532Z 0306/0406 33004KT P6SM SKC
     FM031500 36007KT P6SM SKC
     FM031800 36009KT P6SM FEW040
     FM040000 35004KT P6SM SCT150 BKN250=



000
FTUS44 KSHV 030532
TAFMLU
TAF
KMLU 030532Z 0306/0406 35003KT P6SM SCT020 BKN045
      TEMPO 0306/0308 BKN020
     FM030800 36004KT P6SM BKN020
     FM031200 35005KT P6SM OVC015
     FM031600 35007KT P6SM BKN020
     FM031800 35007KT P6SM BKN030
     FM032000 35009KT P6SM BKN040
     FM040100 35004KT P6SM SCT045 SCT250=



000
FTUS44 KSHV 030532
TAFSHV
TAF
KSHV 030532Z 0306/0406 32006KT P6SM SCT120
     FM030800 33005KT P6SM SCT035
      TEMPO 0309/0312 BKN030
     FM031400 35007KT P6SM BKN030
     FM031800 34008KT P6SM SCT040
     FM040000 32004KT P6SM SCT250=



000
FTUS44 KSHV 030532
TAFGGG
TAF
KGGG 030532Z 0306/0406 33005KT P6SM SKC
     FM031500 36007KT P6SM SKC
     FM031800 36009KT P6SM SCT040
     FM040000 34004KT P6SM FEW150 BKN250=



000
FTUS44 KSHV 022338
TAFGGG
TAF
KGGG 022338Z 0300/0324 33006KT P6SM SCT025 BKN035
     FM030300 33004KT P6SM SCT035 BKN110
     FM030600 33004KT P6SM SCT110
     FM031200 35006KT P6SM SKC
     FM031800 35009KT P6SM SCT040=



000
FTUS44 KSHV 022338
TAFTXK
TAF
KTXK 022338Z 0300/0324 31005KT P6SM BKN035
     FM031000 34003KT P6SM BKN030
     FM031500 35007KT P6SM BKN035
     FM031800 36008KT P6SM BKN040=



000
FTUS44 KSHV 022338
TAFTYR
TAF
KTYR 022338Z 0300/0324 35006KT P6SM BKN035
     FM030300 34004KT P6SM SCT035 BKN110
     FM030600 33004KT P6SM SCT110
     FM031200 35007KT P6SM SKC
     FM031800 35009KT P6SM FEW040=



000
FTUS44 KSHV 022338
TAFMLU
TAF
KMLU 022338Z 0300/0324 35004KT P6SM OVC013
     FM030300 36003KT P6SM BKN020
     FM031000 36003KT 6SM BR BKN015
     FM031500 36007KT P6SM BKN020
     FM031800 35007KT P6SM BKN030
     FM032000 35009KT P6SM BKN040=



000
FTUS44 KSHV 022338
TAFSHV
TAF
KSHV 022338Z 0300/0324 34007KT P6SM SCT025 BKN035 BKN110
     FM030500 34005KT P6SM SCT035 BKN110
     FM030800 34005KT P6SM BKN030
     FM031200 35006KT P6SM BKN035
     FM031400 35007KT P6SM SCT035=



000
FTUS44 KSHV 022338
TAFELD
TAF
KELD 022338Z 0300/0324 VRB04KT P6SM BKN020
     FM030400 VRB03KT P6SM BKN025
     FM030900 35005KT 6SM BR OVC018
     FM031500 35006KT P6SM BKN020
     FM031800 34006KT P6SM BKN035=



000
FTUS44 KSHV 022338
TAFLFK
TAF
KLFK 022338Z 0300/0324 32004KT P6SM VCSH BKN035
      TEMPO 0300/0303 6SM -RA BR BKN035
     FM030300 34004KT P6SM SCT035 OVC080
     FM030600 35004KT P6SM OVC080
     FM031200 35005KT P6SM SCT080 BKN100
     FM031400 36007KT P6SM SCT100
     FM031800 34009KT P6SM SKC=



000
FTUS44 KSHV 022338
TAFGGG
TAF
KGGG 022338Z 0300/0324 33006KT P6SM SCT025 BKN035
     FM030300 33004KT P6SM SCT035 BKN110
     FM030600 33004KT P6SM SCT110
     FM031200 35006KT P6SM SKC
     FM031800 35009KT P6SM SCT040=



000
FTUS44 KSHV 022338
TAFELD
TAF
KELD 022338Z 0300/0324 VRB04KT P6SM BKN020
     FM030400 VRB03KT P6SM BKN025
     FM030900 35005KT 6SM BR OVC018
     FM031500 35006KT P6SM BKN020
     FM031800 34006KT P6SM BKN035=



000
FTUS44 KSHV 022338
TAFLFK
TAF
KLFK 022338Z 0300/0324 32004KT P6SM VCSH BKN035
      TEMPO 0300/0303 6SM -RA BR BKN035
     FM030300 34004KT P6SM SCT035 OVC080
     FM030600 35004KT P6SM OVC080
     FM031200 35005KT P6SM SCT080 BKN100
     FM031400 36007KT P6SM SCT100
     FM031800 34009KT P6SM SKC=



000
FTUS44 KSHV 022214 AAB
TAFMLU
TAF AMD
KMLU 022214Z 0222/0318 35010KT P6SM BKN015
     FM030000 36004KT P6SM BKN015
     FM030300 36003KT P6SM BKN020
     FM031100 36003KT 6SM BR BKN015
     FM031500 36007KT P6SM BKN020=



000
FTUS44 KSHV 022059 AAA
TAFTYR
TAF AMD
KTYR 022059Z 0221/0318 36012G18KT P6SM SCT029 OVC110
      TEMPO 0221/0222 SCT015 BKN040 OVC100
     FM030000 34007KT P6SM SCT030 BKN130
     FM030300 34004KT P6SM BKN120
     FM030900 35004KT P6SM BKN100
     FM031500 36008KT P6SM SCT100=



000
FTUS44 KSHV 022058 AAA
TAFMLU
TAF AMD
KMLU 022058Z 0221/0318 01005KT P6SM VCSH SCT070 SCT100
     FM030000 34005KT P6SM FEW030 OVC040
     FM030700 35006KT P6SM BKN015 OVC025
     FM030900 34006KT 5SM BR OVC009
     FM031300 36003KT 6SM BR OVC015
     FM031600 01005KT P6SM OVC025=



000
FTUS44 KSHV 022058 AAA
TAFMLU
TAF AMD
KMLU 022058Z 0221/0318 01005KT P6SM VCSH SCT070 SCT100
     FM030000 34005KT P6SM FEW030 OVC040
     FM030700 35006KT P6SM BKN015 OVC025
     FM030900 34006KT 5SM BR OVC009
     FM031300 36003KT 6SM BR OVC015
     FM031600 01005KT P6SM OVC025=



000
FTUS44 KSHV 021756
TAFELD
TAF
KELD 021756Z 0218/0318 36007KT P6SM VCSH BKN005 OVC035
      TEMPO 0218/0220 -RA BKN015 OVC025
     FM022000 33009KT P6SM OVC025
      TEMPO 0221/0224 -RA BKN030
     FM030000 33004KT P6SM SCT025 OVC035
     FM030300 34004KT P6SM OVC035
     FM031000 35004KT 5SM BR OVC010
     FM031300 35003KT 3SM BR OVC008
     FM031500 36005KT P6SM OVC015
     FM031700 35006KT P6SM OVC035=



000
FTUS44 KSHV 021756
TAFTYR
TAF
KTYR 021756Z 0218/0318 33011KT P6SM OVC015
      TEMPO 0220/0222 SCT015 BKN040 OVC100
     FM030000 34007KT P6SM SCT030 BKN130
     FM030300 34004KT P6SM BKN120
     FM030900 35004KT P6SM BKN100
     FM031500 36008KT P6SM SCT100=



000
FTUS44 KSHV 021756
TAFSHV
TAF
KSHV 021756Z 0218/0318 33011KT P6SM BKN025 OVC050
     FM022100 33008KT P6SM OVC050
     FM030300 34004KT P6SM BKN070 OVC100
     FM030900 34004KT P6SM BKN015
     FM031400 35005KT P6SM BKN040 BKN100=



000
FTUS44 KSHV 021756
TAFTXK
TAF
KTXK 021756Z 0218/0318 03009KT P6SM BKN015 OVC025
      TEMPO 0220/0222 SCT025 BKN035 OVC080
     FM022200 32009KT P6SM BKN035 OVC080
     FM030300 34005KT P6SM BKN040
     FM031000 34003KT 6SM BR BKN030
     FM031200 35003KT P6SM OVC025
     FM031400 36005KT P6SM OVC050=



000
FTUS44 KSHV 021756
TAFELD
TAF
KELD 021756Z 0218/0318 36007KT P6SM VCSH BKN005 OVC035
      TEMPO 0218/0220 -RA BKN015 OVC025
     FM022000 33009KT P6SM OVC025
      TEMPO 0221/0224 -RA BKN030
     FM030000 33004KT P6SM SCT025 OVC035
     FM030300 34004KT P6SM OVC035
     FM031000 35004KT 5SM BR OVC010
     FM031300 35003KT 3SM BR OVC008
     FM031500 36005KT P6SM OVC015
     FM031700 35006KT P6SM OVC035=



000
FTUS44 KSHV 021756
TAFMLU
TAF
KMLU 021756Z 0218/0318 35007KT 5SM -SHRA BR VCTS OVC010CB
      TEMPO 0218/0220 P6SM -TSRA BKN008 OVC015CB
     FM022000 36008KT P6SM VCSH BKN020 OVC035
     FM030000 34005KT P6SM FEW030 OVC040
     FM030700 35006KT P6SM BKN015 OVC025
     FM030900 34006KT 5SM BR OVC009
     FM031300 36003KT 6SM BR OVC015
     FM031600 01005KT P6SM OVC025=



000
FTUS44 KSHV 021756
TAFLFK
TAF
KLFK 021756Z 0218/0318 02007KT P6SM BKN050 BKN080 OVC130
      TEMPO 0220/0222 36008KT P6SM BKN015 OVC035
     FM022200 34007KT P6SM OVC040
     FM030000 36004KT P6SM OVC050
     FM030600 35004KT P6SM BKN050 OVC100
     FM031400 34007KT P6SM BKN120=



000
FTUS44 KSHV 021756
TAFGGG
TAF
KGGG 021756Z 0218/0318 33009KT P6SM BKN015 OVC050
      TEMPO 0218/0222 BKN045 BKN120
     FM022200 33010KT P6SM BKN050 BKN130
     FM030000 34007KT P6SM SCT045 BKN100
     FM030300 34004KT P6SM BKN120
     FM030900 34004KT P6SM SCT100 BKN250
     FM031500 36008KT P6SM SCT100=



000
FTUS44 KSHV 021756
TAFGGG
TAF
KGGG 021756Z 0218/0318 33009KT P6SM BKN015 OVC050
      TEMPO 0218/0222 BKN045 BKN120
     FM022200 33010KT P6SM BKN050 BKN130
     FM030000 34007KT P6SM SCT045 BKN100
     FM030300 34004KT P6SM BKN120
     FM030900 34004KT P6SM SCT100 BKN250
     FM031500 36008KT P6SM SCT100=



000
FTUS44 KSHV 021756
TAFTYR
TAF
KTYR 021756Z 0218/0318 33011KT P6SM OVC015
      TEMPO 0220/0222 SCT015 BKN040 OVC100
     FM030000 34007KT P6SM SCT030 BKN130
     FM030300 34004KT P6SM BKN120
     FM030900 35004KT P6SM BKN100
     FM031500 36008KT P6SM SCT100=



000
FTUS44 KSHV 021756
TAFSHV
TAF
KSHV 021756Z 0218/0318 33011KT P6SM BKN025 OVC050
     FM022100 33008KT P6SM OVC050
     FM030300 34004KT P6SM BKN070 OVC100
     FM030900 34004KT P6SM BKN015
     FM031400 35005KT P6SM BKN040 BKN100=



000
FTUS44 KSHV 021756
TAFTXK
TAF
KTXK 021756Z 0218/0318 03009KT P6SM BKN015 OVC025
      TEMPO 0220/0222 SCT025 BKN035 OVC080
     FM022200 32009KT P6SM BKN035 OVC080
     FM030300 34005KT P6SM BKN040
     FM031000 34003KT 6SM BR BKN030
     FM031200 35003KT P6SM OVC025
     FM031400 36005KT P6SM OVC050=



000
FTUS44 KSHV 021756
TAFMLU
TAF
KMLU 021756Z 0218/0318 35007KT 5SM -SHRA BR VCTS OVC010CB
      TEMPO 0218/0220 P6SM -TSRA BKN008 OVC015CB
     FM022000 36008KT P6SM VCSH BKN020 OVC035
     FM030000 34005KT P6SM FEW030 OVC040
     FM030700 35006KT P6SM BKN015 OVC025
     FM030900 34006KT 5SM BR OVC009
     FM031300 36003KT 6SM BR OVC015
     FM031600 01005KT P6SM OVC025=



000
FTUS44 KSHV 021756
TAFLFK
TAF
KLFK 021756Z 0218/0318 02007KT P6SM BKN050 BKN080 OVC130
      TEMPO 0220/0222 36008KT P6SM BKN015 OVC035
     FM022200 34007KT P6SM OVC040
     FM030000 36004KT P6SM OVC050
     FM030600 35004KT P6SM BKN050 OVC100
     FM031400 34007KT P6SM BKN120=



000
FTUS44 KSHV 021736 AAA
TAFGGG
TAF AMD
KGGG 021736Z 0218/0312 33009KT P6SM BKN015 OVC050
      TEMPO 0218/0222 BKN045 BKN120
     FM022200 33010KT P6SM BKN050 BKN130
     FM030000 34007KT P6SM SCT045 BKN100
     FM030300 34004KT P6SM BKN120
     FM030900 34004KT P6SM SCT100 BKN250=



000
FTUS44 KSHV 021736 AAA
TAFGGG
TAF AMD
KGGG 021736Z 0218/0312 33009KT P6SM BKN015 OVC050
      TEMPO 0218/0222 BKN045 BKN120
     FM022200 33010KT P6SM BKN050 BKN130
     FM030000 34007KT P6SM SCT045 BKN100
     FM030300 34004KT P6SM BKN120
     FM030900 34004KT P6SM SCT100 BKN250=



000
FTUS44 KSHV 021734 AAA
TAFTYR
TAF AMD
KTYR 021734Z 0218/0312 33011KT P6SM OVC015
      TEMPO 0220/0222 SCT015 BKN040 OVC100
     FM030000 34007KT P6SM SCT030 BKN130
     FM030300 34004KT P6SM BKN120
     FM030900 35004KT P6SM BKN100=



000
FTUS44 KSHV 021734 AAA
TAFTYR
TAF AMD
KTYR 021734Z 0218/0312 33011KT P6SM OVC015
      TEMPO 0220/0222 SCT015 BKN040 OVC100
     FM030000 34007KT P6SM SCT030 BKN130
     FM030300 34004KT P6SM BKN120
     FM030900 35004KT P6SM BKN100=



000
FTUS44 KSHV 021726 AAA
TAFTXK
TAF AMD
KTXK 021726Z 0217/0312 03009KT P6SM BKN015 OVC025
      TEMPO 0220/0222 SCT025 BKN035 OVC080
     FM022200 32009KT P6SM BKN035 OVC080
     FM030300 34005KT P6SM BKN040
     FM031100 34003KT 6SM BR BKN035=



000
FTUS44 KSHV 021605 AAB
TAFSHV
TAF AMD
KSHV 021605Z 0216/0312 34009KT P6SM VCSH BKN040 OVC060
      TEMPO 0216/0218 -RA BKN015 OVC040
     FM021800 33011KT P6SM BKN025 OVC050
     FM030300 34004KT P6SM BKN070 OVC100
     FM030900 34004KT P6SM BKN015=



000
FTUS44 KSHV 021559 AAA
TAFMLU
TAF AMD
KMLU 021559Z 0216/0312 02010KT P6SM -RA VCTS BKN011CB OVC025
      TEMPO 0216/0218 5SM -TSRA BR BKN009CB OVC015
     FM021800 35007KT 3SM TSRA BR OVC010CB
      TEMPO 0218/0219 P6SM -TSRA SCT015 BKN025CB OVC035
     FM022000 36008KT P6SM VCSH BKN020 OVC035
     FM030000 34005KT P6SM FEW030 OVC040
     FM030700 35006KT P6SM BKN015 OVC025
     FM030900 34006KT 5SM BR OVC009=



000
FTUS44 KSHV 021124
TAFTXK
TAF
KTXK 021124Z 0212/0312 01004KT P6SM VCTS OVC040CB
      TEMPO 0212/0216 5SM -TSRA BR OVC030CB
     FM021600 36008KT P6SM OVC050
     FM022000 34007KT P6SM OVC070
     FM030300 34005KT P6SM SCT035 SCT120=



000
FTUS44 KSHV 021124
TAFGGG
TAF
KGGG 021124Z 0212/0312 36007KT P6SM VCTS BKN045CB OVC090
      TEMPO 0212/0216 5SM -TSRA BR OVC030CB
     FM021800 33009KT P6SM OVC050
      TEMPO 0218/0222 BKN030
     FM030000 34007KT P6SM SCT030 BKN100
     FM030300 34004KT P6SM SCT120=



000
FTUS44 KSHV 021124
TAFTYR
TAF
KTYR 021124Z 0212/0312 36007KT P6SM VCTS BKN045CB OVC090
      TEMPO 0212/0216 5SM -TSRA BR OVC030CB
     FM021800 33009KT P6SM OVC050
      TEMPO 0218/0222 BKN030
     FM030000 34007KT P6SM SCT030 BKN100
     FM030300 34004KT P6SM SCT120=



000
FTUS44 KSHV 021124
TAFELD
TAF
KELD 021124Z 0212/0312 36007KT P6SM VCTS OVC035CB
      TEMPO 0212/0216 5SM -TSRA BR OVC020CB
     FM022000 33009KT P6SM OVC035
      TEMPO 0220/0224 BKN030
     FM030000 33004KT P6SM OVC050
     FM030300 34004KT P6SM SCT120=



000
FTUS44 KSHV 021124
TAFMLU
TAF
KMLU 021124Z 0212/0312 VRB05KT P6SM VCTS BKN045CB OVC120
      TEMPO 0212/0216 3SM TSRA BR OVC010CB
     FM021600 35007KT 5SM TSRA BR BKN013CB
     FM030000 34005KT P6SM OVC040=



000
FTUS44 KSHV 021124
TAFLFK
TAF
KLFK 021124Z 0212/0312 35005KT P6SM VCTS OVC015CB
      TEMPO 0212/0216 2SM TSRA BR BKN007CB
     FM022000 34007KT P6SM OVC030
     FM030000 36004KT P6SM OVC045=



000
FTUS44 KSHV 021124
TAFSHV
TAF
KSHV 021124Z 0212/0312 36006KT P6SM VCTS BKN025CB OVC090
      TEMPO 0212/0216 4SM TSRA BR BKN015CB
     FM021600 35007KT P6SM VCTS BKN020CB OVC050
     FM022000 33007KT P6SM OVC050
     FM030300 34004KT P6SM BKN070
     FM030900 34004KT P6SM SCT100=



000
FTUS44 KSHV 021124
TAFELD
TAF
KELD 021124Z 0212/0312 36007KT P6SM VCTS OVC035CB
      TEMPO 0212/0216 5SM -TSRA BR OVC020CB
     FM022000 33009KT P6SM OVC035
      TEMPO 0220/0224 BKN030
     FM030000 33004KT P6SM OVC050
     FM030300 34004KT P6SM SCT120=



000
FTUS44 KSHV 021124
TAFTYR
TAF
KTYR 021124Z 0212/0312 36007KT P6SM VCTS BKN045CB OVC090
      TEMPO 0212/0216 5SM -TSRA BR OVC030CB
     FM021800 33009KT P6SM OVC050
      TEMPO 0218/0222 BKN030
     FM030000 34007KT P6SM SCT030 BKN100
     FM030300 34004KT P6SM SCT120=



000
FTUS44 KSHV 021124
TAFTXK
TAF
KTXK 021124Z 0212/0312 01004KT P6SM VCTS OVC040CB
      TEMPO 0212/0216 5SM -TSRA BR OVC030CB
     FM021600 36008KT P6SM OVC050
     FM022000 34007KT P6SM OVC070
     FM030300 34005KT P6SM SCT035 SCT120=



000
FTUS44 KSHV 021124
TAFLFK
TAF
KLFK 021124Z 0212/0312 35005KT P6SM VCTS OVC015CB
      TEMPO 0212/0216 2SM TSRA BR BKN007CB
     FM022000 34007KT P6SM OVC030
     FM030000 36004KT P6SM OVC045=



000
FTUS44 KSHV 021124
TAFSHV
TAF
KSHV 021124Z 0212/0312 36006KT P6SM VCTS BKN025CB OVC090
      TEMPO 0212/0216 4SM TSRA BR BKN015CB
     FM021600 35007KT P6SM VCTS BKN020CB OVC050
     FM022000 33007KT P6SM OVC050
     FM030300 34004KT P6SM BKN070
     FM030900 34004KT P6SM SCT100=



000
FTUS44 KSHV 021124
TAFMLU
TAF
KMLU 021124Z 0212/0312 VRB05KT P6SM VCTS BKN045CB OVC120
      TEMPO 0212/0216 3SM TSRA BR OVC010CB
     FM021600 35007KT 5SM TSRA BR BKN013CB
     FM030000 34005KT P6SM OVC040=



000
FTUS44 KSHV 021124
TAFGGG
TAF
KGGG 021124Z 0212/0312 36007KT P6SM VCTS BKN045CB OVC090
      TEMPO 0212/0216 5SM -TSRA BR OVC030CB
     FM021800 33009KT P6SM OVC050
      TEMPO 0218/0222 BKN030
     FM030000 34007KT P6SM SCT030 BKN100
     FM030300 34004KT P6SM SCT120=



000
FTUS44 KSHV 020657 AAA
TAFELD
TAF AMD
KELD 020657Z 0207/0306 VRB04KT P6SM VCTS BKN040CB
      TEMPO 0207/0209 VRB30G50KT 1SM TSRAGR BR BKN010CB
     FM021100 36005KT P6SM VCTS BKN020CB
      TEMPO 0211/0215 3SM TSRA BR BKN015CB
     FM021500 34006KT P6SM VCSH BKN020
     FM022200 32006KT P6SM BKN025
     FM030000 32004KT P6SM SCT030 BKN040=



000
FTUS44 KSHV 020657 AAA
TAFELD
TAF AMD
KELD 020657Z 0207/0306 VRB04KT P6SM VCTS BKN040CB
      TEMPO 0207/0209 VRB30G50KT 1SM TSRAGR BR BKN010CB
     FM021100 36005KT P6SM VCTS BKN020CB
      TEMPO 0211/0215 3SM TSRA BR BKN015CB
     FM021500 34006KT P6SM VCSH BKN020
     FM022200 32006KT P6SM BKN025
     FM030000 32004KT P6SM SCT030 BKN040=



000
FTUS44 KSHV 020520
TAFTYR
TAF
KTYR 020520Z 0206/0306 35006KT P6SM VCTS BKN040CB
      TEMPO 0207/0211 4SM TSRA BR BKN035CB
     FM021100 35005KT P6SM VCTS BKN025CB
     FM021500 35007KT P6SM BKN015
     FM021800 33009KT P6SM BKN020
     FM022100 34007KT P6SM SCT030 BKN100=



000
FTUS44 KSHV 020520
TAFMLU
TAF
KMLU 020520Z 0206/0306 VRB04KT P6SM SCT025 BKN040
      TEMPO 0208/0211 BKN020
     FM021100 VRB03KT 6SM BR VCTS SCT008 BKN015CB
      TEMPO 0211/0215 3SM TSRA BR OVC007CB
     FM021500 35007KT 5SM TSRA BR BKN013CB
     FM022100 35009KT P6SM VCTS BKN020CB
     FM030000 34005KT P6SM SCT030 BKN040=



000
FTUS44 KSHV 020520
TAFSHV
TAF
KSHV 020520Z 0206/0306 VRB04KT P6SM VCTS BKN035CB
      TEMPO 0206/0210 4SM TSRA BR BKN025CB
     FM021000 VRB05KT P6SM VCTS BKN020CB
      TEMPO 0210/0214 4SM TSRA BR BKN015CB
     FM021800 33009KT P6SM VCSH BKN020
     FM022300 VRB04KT P6SM SCT040 BKN080=



000
FTUS44 KSHV 020520
TAFELD
TAF
KELD 020520Z 0206/0306 VRB04KT P6SM VCTS BKN040CB
      TEMPO 0207/0211 3SM TSRA BR BKN030CB
     FM021100 36005KT P6SM VCTS BKN020CB
      TEMPO 0211/0215 3SM TSRA BR BKN015CB
     FM021500 34006KT P6SM VCSH BKN020
     FM022200 32006KT P6SM BKN025
     FM030000 32004KT P6SM SCT030 BKN040=



000
FTUS44 KSHV 020520
TAFLFK
TAF
KLFK 020520Z 0206/0306 VRB03KT P6SM VCTS SCT020 BKN035CB
      TEMPO 0206/0210 2SM TSRA BR BKN013CB
     FM021000 VRB03KT 5SM BR VCTS BKN015CB
      TEMPO 0210/0214 3SM TSRA BR BKN007CB
     FM021400 01007KT P6SM VCTS OVC007CB
     FM021800 34007KT P6SM BKN015
     FM030000 36004KT P6SM SCT030 BKN040=



000
FTUS44 KSHV 020520
TAFGGG
TAF
KGGG 020520Z 0206/0306 34005KT P6SM VCTS BKN040CB
      TEMPO 0206/0210 4SM TSRA BR BKN030CB
     FM021000 35005KT P6SM VCTS BKN023CB
      TEMPO 0210/0214 4SM TSRA BR BKN018CB
     FM021400 34007KT P6SM VCSH BKN015
     FM021800 33009KT P6SM BKN020
     FM022100 34007KT P6SM BKN035
     FM030000 34004KT P6SM SCT035 BKN120=



000
FTUS44 KSHV 020520
TAFTXK
TAF
KTXK 020520Z 0206/0306 01005KT P6SM VCTS BKN040CB
      TEMPO 0206/0210 4SM TSRA BR BKN035CB
     FM021000 01004KT P6SM VCTS BKN040CB
      TEMPO 0210/0214 BKN035CB
     FM021400 01006KT P6SM VCSH BKN035
     FM021900 34007KT P6SM SCT035 BKN080
     FM030000 31005KT P6SM BKN035=



000
FTUS44 KSHV 020520
TAFLFK
TAF
KLFK 020520Z 0206/0306 VRB03KT P6SM VCTS SCT020 BKN035CB
      TEMPO 0206/0210 2SM TSRA BR BKN013CB
     FM021000 VRB03KT 5SM BR VCTS BKN015CB
      TEMPO 0210/0214 3SM TSRA BR BKN007CB
     FM021400 01007KT P6SM VCTS OVC007CB
     FM021800 34007KT P6SM BKN015
     FM030000 36004KT P6SM SCT030 BKN040=



000
FTUS44 KSHV 020520
TAFTXK
TAF
KTXK 020520Z 0206/0306 01005KT P6SM VCTS BKN040CB
      TEMPO 0206/0210 4SM TSRA BR BKN035CB
     FM021000 01004KT P6SM VCTS BKN040CB
      TEMPO 0210/0214 BKN035CB
     FM021400 01006KT P6SM VCSH BKN035
     FM021900 34007KT P6SM SCT035 BKN080
     FM030000 31005KT P6SM BKN035=



000
FTUS44 KSHV 020520
TAFTYR
TAF
KTYR 020520Z 0206/0306 35006KT P6SM VCTS BKN040CB
      TEMPO 0207/0211 4SM TSRA BR BKN035CB
     FM021100 35005KT P6SM VCTS BKN025CB
     FM021500 35007KT P6SM BKN015
     FM021800 33009KT P6SM BKN020
     FM022100 34007KT P6SM SCT030 BKN100=



000
FTUS44 KSHV 020520
TAFMLU
TAF
KMLU 020520Z 0206/0306 VRB04KT P6SM SCT025 BKN040
      TEMPO 0208/0211 BKN020
     FM021100 VRB03KT 6SM BR VCTS SCT008 BKN015CB
      TEMPO 0211/0215 3SM TSRA BR OVC007CB
     FM021500 35007KT 5SM TSRA BR BKN013CB
     FM022100 35009KT P6SM VCTS BKN020CB
     FM030000 34005KT P6SM SCT030 BKN040=



000
FTUS44 KSHV 020520
TAFGGG
TAF
KGGG 020520Z 0206/0306 34005KT P6SM VCTS BKN040CB
      TEMPO 0206/0210 4SM TSRA BR BKN030CB
     FM021000 35005KT P6SM VCTS BKN023CB
      TEMPO 0210/0214 4SM TSRA BR BKN018CB
     FM021400 34007KT P6SM VCSH BKN015
     FM021800 33009KT P6SM BKN020
     FM022100 34007KT P6SM BKN035
     FM030000 34004KT P6SM SCT035 BKN120=



000
FTUS44 KSHV 020520
TAFSHV
TAF
KSHV 020520Z 0206/0306 VRB04KT P6SM VCTS BKN035CB
      TEMPO 0206/0210 4SM TSRA BR BKN025CB
     FM021000 VRB05KT P6SM VCTS BKN020CB
      TEMPO 0210/0214 4SM TSRA BR BKN015CB
     FM021800 33009KT P6SM VCSH BKN020
     FM022300 VRB04KT P6SM SCT040 BKN080=



000
FTUS44 KSHV 020520
TAFELD
TAF
KELD 020520Z 0206/0306 VRB04KT P6SM VCTS BKN040CB
      TEMPO 0207/0211 3SM TSRA BR BKN030CB
     FM021100 36005KT P6SM VCTS BKN020CB
      TEMPO 0211/0215 3SM TSRA BR BKN015CB
     FM021500 34006KT P6SM VCSH BKN020
     FM022200 32006KT P6SM BKN025
     FM030000 32004KT P6SM SCT030 BKN040=



000
FTUS44 KSHV 012355
TAFTXK
TAF
KTXK 012355Z 0200/0224 36005KT P6SM FEW050
     FM020400 35005KT P6SM BKN045
     FM020900 VRB04KT P6SM VCTS BKN040CB
     FM021500 02008KT P6SM BKN040
     FM021800 02007KT P6SM SCT040=



000
FTUS44 KSHV 012355
TAFSHV
TAF
KSHV 012355Z 0200/0224 35007KT P6SM SCT050
     FM020100 13007KT P6SM VCSH BKN045
     FM020300 VRB04KT P6SM SCT045 SCT250
     FM020600 VRB04KT P6SM BKN040
     FM020900 VRB04KT P6SM BKN020
     FM021200 VRB04KT P6SM VCTS BKN020CB
     FM021800 35010KT P6SM BKN020=



000
FTUS44 KSHV 012355
TAFMLU
TAF
KMLU 012355Z 0200/0224 VRB04KT P6SM SCT035 BKN250
     FM020600 VRB04KT P6SM BKN025 BKN040
     FM020900 VRB04KT P6SM VCSH BKN020
     FM021200 VRB03KT 4SM BR VCTS BKN008CB
     FM021500 25004KT 6SM BR VCTS BKN015CB
     FM021800 25005KT P6SM BKN015=



000
FTUS44 KSHV 012355
TAFELD
TAF
KELD 012355Z 0200/0224 VRB06KT P6SM VCTS BKN035CB
      TEMPO 0201/0203 4SM TSRA BR BKN020CB
     FM020300 VRB04KT P6SM BKN035
     FM020600 VRB03KT 6SM BR SCT007 BKN025
     FM021200 01005KT 5SM BR VCTS BKN020CB
     FM021700 01007KT P6SM BKN020=



000
FTUS44 KSHV 012355
TAFTYR
TAF
KTYR 012355Z 0200/0224 01007KT P6SM SCT060
     FM020300 01005KT P6SM BKN050
     FM020800 VRB04KT P6SM VCTS BKN025CB
     FM021400 35007KT P6SM BKN015
     FM021800 34009KT P6SM BKN020=



000
FTUS44 KSHV 012355
TAFGGG
TAF
KGGG 012355Z 0200/0224 01007KT P6SM SCT060
     FM020300 VRB04KT P6SM BKN050
     FM020900 VRB04KT P6SM VCTS BKN025CB
     FM021400 35007KT P6SM BKN015
     FM021800 34007KT P6SM BKN020=



000
FTUS44 KSHV 012355
TAFLFK
TAF
KLFK 012355Z 0200/0224 VRB04KT P6SM VCTS BKN035CB
      TEMPO 0201/0203 4SM TSRA BR BKN020CB
     FM020400 VRB04KT 6SM BR SCT020 BKN050
     FM020700 VRB05KT 4SM BR BKN015
     FM021200 01008KT P6SM VCTS OVC007CB
     FM021800 05009KT P6SM BKN015=



000
FTUS44 KSHV 012355
TAFTXK
TAF
KTXK 012355Z 0200/0224 36005KT P6SM FEW050
     FM020400 35005KT P6SM BKN045
     FM020900 VRB04KT P6SM VCTS BKN040CB
     FM021500 02008KT P6SM BKN040
     FM021800 02007KT P6SM SCT040=



000
FTUS44 KSHV 012355
TAFELD
TAF
KELD 012355Z 0200/0224 VRB06KT P6SM VCTS BKN035CB
      TEMPO 0201/0203 4SM TSRA BR BKN020CB
     FM020300 VRB04KT P6SM BKN035
     FM020600 VRB03KT 6SM BR SCT007 BKN025
     FM021200 01005KT 5SM BR VCTS BKN020CB
     FM021700 01007KT P6SM BKN020=



000
FTUS44 KSHV 012355
TAFMLU
TAF
KMLU 012355Z 0200/0224 VRB04KT P6SM SCT035 BKN250
     FM020600 VRB04KT P6SM BKN025 BKN040
     FM020900 VRB04KT P6SM VCSH BKN020
     FM021200 VRB03KT 4SM BR VCTS BKN008CB
     FM021500 25004KT 6SM BR VCTS BKN015CB
     FM021800 25005KT P6SM BKN015=



000
FTUS44 KSHV 012355
TAFSHV
TAF
KSHV 012355Z 0200/0224 35007KT P6SM SCT050
     FM020100 13007KT P6SM VCSH BKN045
     FM020300 VRB04KT P6SM SCT045 SCT250
     FM020600 VRB04KT P6SM BKN040
     FM020900 VRB04KT P6SM BKN020
     FM021200 VRB04KT P6SM VCTS BKN020CB
     FM021800 35010KT P6SM BKN020=



000
FTUS44 KSHV 012355
TAFTYR
TAF
KTYR 012355Z 0200/0224 01007KT P6SM SCT060
     FM020300 01005KT P6SM BKN050
     FM020800 VRB04KT P6SM VCTS BKN025CB
     FM021400 35007KT P6SM BKN015
     FM021800 34009KT P6SM BKN020=



000
FTUS44 KSHV 012355
TAFGGG
TAF
KGGG 012355Z 0200/0224 01007KT P6SM SCT060
     FM020300 VRB04KT P6SM BKN050
     FM020900 VRB04KT P6SM VCTS BKN025CB
     FM021400 35007KT P6SM BKN015
     FM021800 34007KT P6SM BKN020=



000
FTUS44 KSHV 012355
TAFLFK
TAF
KLFK 012355Z 0200/0224 VRB04KT P6SM VCTS BKN035CB
      TEMPO 0201/0203 4SM TSRA BR BKN020CB
     FM020400 VRB04KT 6SM BR SCT020 BKN050
     FM020700 VRB05KT 4SM BR BKN015
     FM021200 01008KT P6SM VCTS OVC007CB
     FM021800 05009KT P6SM BKN015=



000
FTUS44 KSHV 012026 AAB
TAFLFK
TAF AMD
KLFK 012026Z 0120/0218 01009KT P6SM VCTS BKN040CB OVC050
      TEMPO 0122/0124 5SM -TSRA BKN020CB OVC035
     FM020000 VRB04KT 6SM -SHRA OVC025
     FM020400 VRB04KT 3SM TSRA BR OVC015CB
     FM020700 01006KT 4SM BR BKN015 OVC025
     FM021200 01008KT P6SM VCTS OVC015CB
     FM021400 08007KT 4SM -TSRA BR BKN015CB=



000
FTUS44 KSHV 012025 AAA
TAFELD
TAF AMD
KELD 012025Z 0120/0218 VRB05KT P6SM FEW029 SCT035
      TEMPO 0122/0124 5SM -TSRA BR BKN025CB OVC045
     FM020000 VRB05KT P6SM VCTS BKN030CB BKN045
     FM020300 VRB05KT P6SM BKN040
     FM020600 VRB05KT P6SM VCTS BKN030CB
      TEMPO 0207/0209 4SM -TSRA BR BKN009CB
     FM020900 VRB06KT 5SM -TSRA BR OVC008CB
     FM021500 03006KT 5SM -SHRA BR BKN005=



000
FTUS44 KSHV 012024 AAA
TAFGGG
TAF AMD
KGGG 012024Z 0120/0218 35007G16KT P6SM BKN040
     FM020100 VRB05KT P6SM VCTS SCT025CB BKN040
      TEMPO 0202/0205 5SM -TSRA BKN025CB OVC035
     FM020500 VRB06KT 5SM -SHRA BR OVC015
     FM020800 VRB04KT P6SM VCTS BKN015CB
      TEMPO 0208/0210 5SM -TSRA BR OVC008CB
     FM021100 36005KT 4SM -SHRA BR OVC008
     FM021500 02008KT 4SM BR OVC004=



000
FTUS44 KSHV 012023 AAA
TAFTYR
TAF AMD
KTYR 012023Z 0120/0218 36010G16KT P6SM BKN040 BKN090
     FM020100 VRB05KT P6SM SCT025 BKN040
      TEMPO 0202/0205 5SM -TSRA BKN025CB OVC035
     FM020500 VRB06KT 5SM -SHRA BR OVC015
     FM020800 VRB04KT P6SM VCTS BKN015CB
      TEMPO 0208/0210 5SM -TSRA BR OVC008CB
     FM021100 36005KT 4SM -SHRA BR OVC008
     FM021500 02008KT 4SM BR OVC004=



000
FTUS44 KSHV 012022 AAB
TAFSHV
TAF AMD
KSHV 012022Z 0120/0218 34010KT P6SM VCSH FEW026 SCT035
      TEMPO 0122/0124 -TSRA BKN030CB BKN045
     FM020100 13006KT P6SM BKN045
     FM020600 14007KT P6SM BKN015 OVC025
     FM020900 VRB06KT P6SM VCSH OVC015
     FM021400 VRB06KT 4SM -TSRA BR BKN008 OVC020CB=



000
FTUS44 KSHV 012022 AAB
TAFMLU
TAF AMD
KMLU 012022Z 0120/0218 VRB03KT P6SM VCSH SKC
     FM012100 16005KT P6SM SCT035 BKN045
     FM020000 VRB04KT P6SM VCTS BKN035CB OVC100
     FM020600 VRB04KT P6SM VCSH BKN025 OVC045
     FM020900 VRB04KT 4SM BR VCSH BKN008 OVC020
     FM021500 26004KT 4SM -TSRA BR OVC015CB=



000
FTUS44 KSHV 011803 RRA
TAFGGG
TAF
KGGG 011803Z 0118/0218 04008KT P6SM BKN020 BKN045
     FM020100 VRB05KT P6SM VCTS SCT025CB BKN040
      TEMPO 0202/0205 5SM -TSRA BKN025CB OVC035
     FM020500 VRB06KT 5SM -SHRA BR OVC015
     FM020800 VRB04KT P6SM VCTS BKN015CB
      TEMPO 0208/0210 5SM -TSRA BR OVC008CB
     FM021100 36005KT 4SM -SHRA BR OVC008
     FM021500 02008KT 4SM BR OVC004=



000
FTUS44 KSHV 011803 RRA
TAFELD
TAF
KELD 011803Z 0118/0218 VRB05KT P6SM SCT021 BKN070
      TEMPO 0119/0121 5SM -TSRA BR BKN025CB OVC045
     FM012100 VRB05KT P6SM VCTS BKN030CB BKN045
     FM020300 VRB05KT P6SM BKN040
     FM020600 VRB05KT P6SM VCTS BKN030CB
      TEMPO 0207/0209 4SM -TSRA BR BKN009CB
     FM020900 VRB06KT 5SM -TSRA BR OVC008CB
     FM021500 03006KT 5SM -SHRA BR BKN005=



000
FTUS44 KSHV 011803 RRA
TAFTXK
TAF
KTXK 011803Z 0118/0218 VRB06KT P6SM SCT035
     FM020000 VRB05KT P6SM BKN045
      TEMPO 0201/0203 5SM -TSRA BKN025CB OVC035
     FM020300 VRB06KT 5SM -SHRA BR OVC015
     FM020600 VRB04KT P6SM VCTS BKN015CB
      TEMPO 0207/0209 5SM -TSRA BR OVC008CB
     FM020900 36005KT 4SM -SHRA BR OVC008
     FM021500 02008KT 4SM BR OVC004=



000
FTUS44 KSHV 011803 RRA
TAFTYR
TAF
KTYR 011803Z 0118/0218 04008KT P6SM SCT035
     FM020100 VRB05KT P6SM SCT025 BKN040
      TEMPO 0202/0205 5SM -TSRA BKN025CB OVC035
     FM020500 VRB06KT 5SM -SHRA BR OVC015
     FM020800 VRB04KT P6SM VCTS BKN015CB
      TEMPO 0208/0210 5SM -TSRA BR OVC008CB
     FM021100 36005KT 4SM -SHRA BR OVC008
     FM021500 02008KT 4SM BR OVC004=



000
FTUS44 KSHV 011803 RRA
TAFLFK
TAF
KLFK 011803Z 0118/0218 04007KT P6SM BKN025 OVC070
     FM012000 06007KT P6SM VCTS BKN035CB BKN045
      TEMPO 0120/0122 5SM -TSRA BKN020CB OVC035
     FM020000 VRB04KT 6SM -SHRA OVC025
     FM020400 VRB04KT 3SM TSRA BR OVC015CB
     FM020700 01006KT 4SM BR BKN015 OVC025
     FM021200 01008KT P6SM VCTS OVC015CB
     FM021400 08007KT 4SM -TSRA BR BKN015CB=



000
FTUS44 KSHV 011803 RRA
TAFSHV
TAF
KSHV 011803Z 0118/0218 03006KT P6SM OVC020
     FM012000 11007KT P6SM VCSH BKN025 OVC035
      TEMPO 0120/0123 5SM -TSRA BKN015CB OVC025
     FM020100 13006KT P6SM BKN045
     FM020600 14007KT P6SM BKN015 OVC025
     FM020900 VRB06KT P6SM VCSH OVC015
     FM021400 VRB06KT 4SM -TSRA BR BKN008 OVC020CB=



000
FTUS44 KSHV 011803 RRA
TAFMLU
TAF
KMLU 011803Z 0118/0218 VRB05KT P6SM VCSH BKN030 BKN070
      TEMPO 0118/0120 6SM -TSRA BKN025CB BKN070
     FM012100 16005KT P6SM SCT035 BKN045
     FM020000 VRB04KT P6SM VCTS BKN035CB OVC100
     FM020600 VRB04KT P6SM VCSH BKN025 OVC045
     FM020900 VRB04KT 4SM BR VCSH BKN008 OVC020
     FM021500 26004KT 4SM -TSRA BR OVC015CB=



000
FTUS44 KSHV 011717 AAA
TAFLFK
TAF AMD
KLFK 011717Z 0117/0212 04007KT P6SM BKN025 OVC070
     FM011900 06007KT P6SM VCTS BKN035CB BKN045
      TEMPO 0120/0122 5SM -TSRA BKN020CB OVC035
     FM020000 VRB04KT 6SM -SHRA OVC025
     FM020400 VRB04KT 3SM TSRA BR OVC015CB
     FM020700 01006KT 4SM BR BKN015 OVC025
     FM021100 01008KT P6SM VCTS OVC015CB=



000
FTUS44 KSHV 011616 AAA
TAFMLU
TAF AMD
KMLU 011616Z 0116/0212 VRB05KT P6SM FEW015 SCT100
      TEMPO 0116/0118 16007KT BKN015 BKN080
     FM011800 VRB05KT P6SM VCSH BKN030 BKN070
      TEMPO 0118/0120 6SM -TSRA BKN025CB BKN070
     FM012100 16005KT P6SM SCT035 BKN045
     FM020000 VRB04KT P6SM VCTS BKN035CB OVC100
     FM020600 VRB04KT P6SM VCSH BKN025 OVC045
     FM020900 VRB04KT 4SM -TSRA BKN015CB OVC035=



000
FTUS44 KSHV 011616 AAA
TAFMLU
TAF AMD
KMLU 011616Z 0116/0212 VRB05KT P6SM FEW015 SCT100
      TEMPO 0116/0118 16007KT BKN015 BKN080
     FM011800 VRB05KT P6SM VCSH BKN030 BKN070
      TEMPO 0118/0120 6SM -TSRA BKN025CB BKN070
     FM012100 16005KT P6SM SCT035 BKN045
     FM020000 VRB04KT P6SM VCTS BKN035CB OVC100
     FM020600 VRB04KT P6SM VCSH BKN025 OVC045
     FM020900 VRB04KT 4SM -TSRA BKN015CB OVC035=



000
FTUS44 KSHV 011132
TAFELD
TAF
KELD 011132Z 0112/0212 36005KT P6SM BKN008
      TEMPO 0112/0116 SCT015 SCT035
     FM011600 VRB05KT P6SM SCT030 SCT045
     FM020000 VRB05KT P6SM VCTS BKN045CB
     FM020600 VRB05KT P6SM VCTS BKN030CB=



000
FTUS44 KSHV 011132
TAFMLU
TAF
KMLU 011132Z 0112/0212 VRB03KT P6SM VCTS BKN015CB
      TEMPO 0112/0116 4SM -TSRA BR BKN025CB
     FM011600 VRB05KT 5SM -TSRA BR OVC030CB
     FM020000 19005KT 5SM -TSRA BR OVC015CB
      TEMPO 0208/0212 2SM TSRA BR OVC008CB=



000
FTUS44 KSHV 011132
TAFTYR
TAF
KTYR 011132Z 0112/0212 04008KT P6SM SKC
     FM020000 09006KT P6SM VCTS BKN045CB
     FM020600 VRB05KT P6SM VCTS BKN015CB=



000
FTUS44 KSHV 011132
TAFLFK
TAF
KLFK 011132Z 0112/0212 05004KT P6SM SCT040 SCT070
      TEMPO 0112/0116 BKN015
     FM011600 07006KT P6SM BKN025
     FM011800 VRB05KT P6SM VCTS BKN030CB
     FM020000 VRB04KT 5SM -TSRA BR OVC025CB
     FM020600 VRB04KT 3SM TSRA BR OVC015CB=



000
FTUS44 KSHV 011132
TAFGGG
TAF
KGGG 011132Z 0112/0212 03006KT P6SM SKC
      TEMPO 0115/0118 BKN030
     FM011800 05007KT P6SM BKN035
     FM020000 09006KT P6SM VCTS BKN045CB
     FM020600 VRB05KT P6SM VCTS BKN015CB=



000
FTUS44 KSHV 011132
TAFSHV
TAF
KSHV 011132Z 0112/0212 02006KT P6SM SCT030 SCT050
      TEMPO 0114/0118 05007KT P6SM BKN015 BKN045
     FM011800 07006KT P6SM BKN035
     FM012000 11007KT P6SM VCTS BKN035CB
     FM020000 13006KT P6SM VCTS BKN035CB
     FM020600 10005KT P6SM VCTS BKN015CB=



000
FTUS44 KSHV 011132
TAFTXK
TAF
KTXK 011132Z 0112/0212 02006KT P6SM SCT010 SCT035
      TEMPO 0112/0114 BKN008
     FM011800 VRB06KT P6SM SCT035
     FM020000 VRB05KT P6SM BKN045
     FM020600 VRB04KT P6SM VCTS BKN015CB=



000
FTUS44 KSHV 010928 AAB
TAFSHV
TAF AMD
KSHV 010928Z 0109/0206 35007KT P6SM SCT030
     FM011200 04006KT P6SM SCT015 SCT030
     FM011700 07006KT P6SM BKN035
     FM012100 12006KT P6SM SCT035=



000
FTUS44 KSHV 010820 AAA
TAFTXK
TAF AMD
KTXK 010820Z 0108/0206 34005KT P6SM BKN035
      TEMPO 0108/0112 BKN025
     FM011200 02006KT P6SM SCT015 SCT030
     FM011700 05006KT P6SM SCT035=



000
FTUS44 KSHV 010820 AAA
TAFTXK
TAF AMD
KTXK 010820Z 0108/0206 34005KT P6SM BKN035
      TEMPO 0108/0112 BKN025
     FM011200 02006KT P6SM SCT015 SCT030
     FM011700 05006KT P6SM SCT035=



000
FTUS44 KSHV 010816 AAA
TAFMLU
TAF AMD
KMLU 010816Z 0108/0206 VRB03KT P6SM SCT015 SCT035
      TEMPO 0108/0110 BKN015
     FM011000 VRB03KT P6SM BKN015
     FM011600 10005KT P6SM BKN020
     FM011800 10005KT P6SM BKN035=



000
FTUS44 KSHV 010813 AAA
TAFSHV
TAF AMD
KSHV 010813Z 0108/0206 35007KT P6SM BKN025
      TEMPO 0110/0112 SCT025
     FM011200 04006KT P6SM BKN015
     FM011700 07006KT P6SM BKN035
     FM012100 12006KT P6SM SCT035=



000
FTUS44 KSHV 010521
TAFGGG
TAF
KGGG 010521Z 0106/0206 35004KT P6SM FEW250
      TEMPO 0109/0113 3SM BR
     FM011300 07007KT P6SM SCT040=



000
FTUS44 KSHV 010521
TAFSHV
TAF
KSHV 010521Z 0106/0206 32004KT P6SM FEW050
     FM010800 35004KT 3SM BR OVC005
     FM011200 04006KT P6SM BKN010
     FM011700 07006KT P6SM BKN035
     FM012100 12006KT P6SM SCT035=



000
FTUS44 KSHV 010521
TAFTXK
TAF
KTXK 010521Z 0106/0206 35005KT P6SM BKN015
      TEMPO 0108/0111 4SM BR OVC005
     FM011200 02006KT P6SM SCT015 SCT030
     FM011700 05006KT P6SM SCT035=



000
FTUS44 KSHV 010521
TAFLFK
TAF
KLFK 010521Z 0106/0206 31004KT P6SM SCT250
      TEMPO 0109/0113 4SM BR OVC010
     FM011500 07006KT P6SM BKN025
     FM011700 10006KT P6SM BKN035=



000
FTUS44 KSHV 010521
TAFMLU
TAF
KMLU 010521Z 0106/0206 14006KT P6SM SCT040
     FM010800 VRB03KT 4SM BR BKN010
      TEMPO 0111/0115 1SM BR OVC005
     FM011600 10005KT P6SM BKN020
     FM011800 10005KT P6SM BKN035=



000
FTUS44 KSHV 010521
TAFTYR
TAF
KTYR 010521Z 0106/0206 35004KT P6SM FEW250
      TEMPO 0109/0113 3SM BR
     FM011300 04007KT P6SM SCT040=



000
FTUS44 KSHV 010521
TAFELD
TAF
KELD 010521Z 0106/0206 12007KT P6SM BKN035 OVC050
     FM010700 VRB03KT 3SM BR BKN015
      TEMPO 0110/0114 1SM BR OVC007
     FM011600 07005KT P6SM SCT020
     FM011800 07005KT P6SM SCT035=



000
FTUS44 KSHV 010521
TAFGGG
TAF
KGGG 010521Z 0106/0206 35004KT P6SM FEW250
      TEMPO 0109/0113 3SM BR
     FM011300 07007KT P6SM SCT040=



000
FTUS44 KSHV 010521
TAFELD
TAF
KELD 010521Z 0106/0206 12007KT P6SM BKN035 OVC050
     FM010700 VRB03KT 3SM BR BKN015
      TEMPO 0110/0114 1SM BR OVC007
     FM011600 07005KT P6SM SCT020
     FM011800 07005KT P6SM SCT035=



000
FTUS44 KSHV 010521
TAFSHV
TAF
KSHV 010521Z 0106/0206 32004KT P6SM FEW050
     FM010800 35004KT 3SM BR OVC005
     FM011200 04006KT P6SM BKN010
     FM011700 07006KT P6SM BKN035
     FM012100 12006KT P6SM SCT035=



000
FTUS44 KSHV 010521
TAFLFK
TAF
KLFK 010521Z 0106/0206 31004KT P6SM SCT250
      TEMPO 0109/0113 4SM BR OVC010
     FM011500 07006KT P6SM BKN025
     FM011700 10006KT P6SM BKN035=



000
FTUS44 KSHV 010521
TAFMLU
TAF
KMLU 010521Z 0106/0206 14006KT P6SM SCT040
     FM010800 VRB03KT 4SM BR BKN010
      TEMPO 0111/0115 1SM BR OVC005
     FM011600 10005KT P6SM BKN020
     FM011800 10005KT P6SM BKN035=



000
FTUS44 KSHV 010521
TAFTYR
TAF
KTYR 010521Z 0106/0206 35004KT P6SM FEW250
      TEMPO 0109/0113 3SM BR
     FM011300 04007KT P6SM SCT040=



000
FTUS44 KSHV 010521
TAFTXK
TAF
KTXK 010521Z 0106/0206 35005KT P6SM BKN015
      TEMPO 0108/0111 4SM BR OVC005
     FM011200 02006KT P6SM SCT015 SCT030
     FM011700 05006KT P6SM SCT035=



    US Dept of Commerce
    National Oceanic and Atmospheric Administration
    National Weather Service
    1325 East West Highway
    Silver Spring, MD 20910
    Page Author: NWS Internet Services Team
Disclaimer
Information Quality
Credits
Glossary
Privacy Policy
Freedom of Information Act (FOIA)
About Us
Career Opportunities